createdAt,value
2016-09-15T00:00:16.809Z,0.00
2016-09-15T00:01:17.322Z,0.00
2016-09-15T00:02:17.858Z,0.00
2016-09-15T00:03:18.374Z,0.00
2016-09-15T00:04:18.858Z,0.00
2016-09-15T00:05:19.376Z,0.00
2016-09-15T00:06:19.887Z,0.00
2016-09-15T00:07:20.398Z,0.00
2016-09-15T00:08:21.067Z,0.00
2016-09-15T00:09:21.428Z,0.00
2016-09-15T00:10:21.942Z,0.00
2016-09-15T00:11:22.459Z,0.00
2016-09-15T00:12:22.977Z,0.00
2016-09-15T00:13:23.514Z,0.00
2016-09-15T00:14:24.001Z,0.00
2016-09-15T00:15:24.512Z,0.00
2016-09-15T00:16:25.187Z,0.00
2016-09-15T00:17:25.541Z,0.00
2016-09-15T00:18:26.060Z,0.00
2016-09-15T00:19:27.778Z,0.00
2016-09-15T00:20:27.102Z,0.00
2016-09-15T00:21:27.601Z,0.00
2016-09-15T00:22:28.114Z,0.00
2016-09-15T00:23:28.649Z,0.00
2016-09-15T00:24:29.142Z,0.00
2016-09-15T00:25:29.655Z,0.00
2016-09-15T00:26:30.172Z,0.00
2016-09-15T00:27:30.692Z,0.00
2016-09-15T00:28:31.509Z,0.00
2016-09-15T00:29:31.730Z,0.00
2016-09-15T00:30:32.392Z,0.00
2016-09-15T00:31:32.756Z,0.00
2016-09-15T00:32:33.265Z,0.00
2016-09-15T00:33:33.803Z,0.00
2016-09-15T00:34:34.289Z,0.00
2016-09-15T00:35:34.806Z,0.00
2016-09-15T00:36:35.466Z,0.00
2016-09-15T00:37:35.834Z,0.00
2016-09-15T00:38:36.345Z,0.00
2016-09-15T00:39:36.861Z,0.00
2016-09-15T00:40:37.524Z,0.00
2016-09-15T00:41:37.890Z,0.00
2016-09-15T00:42:38.402Z,0.00
2016-09-15T00:43:38.942Z,0.00
2016-09-15T00:44:39.430Z,0.00
2016-09-15T00:45:39.947Z,0.00
2016-09-15T00:46:40.611Z,0.00
2016-09-15T00:47:40.979Z,0.00
2016-09-15T00:48:41.641Z,0.00
2016-09-15T00:49:42.009Z,0.00
2016-09-15T00:50:42.671Z,0.00
2016-09-15T00:51:43.039Z,0.00
2016-09-15T00:52:43.552Z,0.00
2016-09-15T00:53:44.087Z,0.00
2016-09-15T00:54:44.729Z,0.00
2016-09-15T00:55:45.089Z,0.00
2016-09-15T00:56:45.779Z,0.00
2016-09-15T00:57:46.118Z,0.00
2016-09-15T00:58:46.630Z,0.00
2016-09-15T00:59:47.293Z,0.00
2016-09-15T01:00:47.801Z,0.00
2016-09-15T01:01:48.173Z,0.00
2016-09-15T01:02:48.983Z,0.00
2016-09-15T01:03:49.205Z,0.00
2016-09-15T01:04:49.723Z,0.00
2016-09-15T01:05:50.254Z,0.00
2016-09-15T01:06:50.757Z,0.00
2016-09-15T01:07:51.270Z,0.00
2016-09-15T01:08:51.785Z,0.00
2016-09-15T01:09:52.301Z,0.00
2016-09-15T01:10:52.816Z,0.00
2016-09-15T01:11:53.356Z,0.00
2016-09-15T01:12:53.864Z,0.00
2016-09-15T01:13:54.354Z,0.00
2016-09-15T01:14:54.895Z,0.00
2016-09-15T01:15:55.386Z,0.00
2016-09-15T01:16:55.904Z,0.00
2016-09-15T01:17:56.418Z,0.00
2016-09-15T01:18:56.927Z,0.00
2016-09-15T01:19:57.440Z,0.00
2016-09-15T01:20:57.958Z,0.00
2016-09-15T01:21:58.472Z,0.00
2016-09-15T01:22:59.135Z,0.00
2016-09-15T01:23:59.499Z,0.00
2016-09-15T01:25:00.015Z,0.00
2016-09-15T01:26:00.535Z,0.00
2016-09-15T01:27:01.040Z,0.00
2016-09-15T01:28:01.564Z,0.00
2016-09-15T01:29:02.222Z,0.00
2016-09-15T01:30:02.578Z,0.00
2016-09-15T01:31:03.091Z,0.00
2016-09-15T01:32:03.605Z,0.00
2016-09-15T01:33:04.137Z,0.00
2016-09-15T01:34:04.627Z,0.00
2016-09-15T01:35:05.144Z,0.00
2016-09-15T01:36:05.659Z,0.00
2016-09-15T01:37:06.171Z,0.00
2016-09-15T01:38:06.683Z,0.00
2016-09-15T01:39:07.345Z,0.00
2016-09-15T01:40:07.857Z,0.00
2016-09-15T01:41:08.221Z,0.00
2016-09-15T01:42:08.752Z,0.00
2016-09-15T01:43:09.281Z,0.00
2016-09-15T01:44:09.767Z,0.00
2016-09-15T01:45:10.285Z,0.00
2016-09-15T01:46:10.945Z,0.00
2016-09-15T01:47:11.311Z,0.00
2016-09-15T01:48:11.830Z,0.00
2016-09-15T01:49:12.344Z,0.00
2016-09-15T01:50:12.852Z,0.00
2016-09-15T01:51:13.369Z,0.00
2016-09-15T01:52:14.030Z,0.00
2016-09-15T01:53:14.420Z,0.00
2016-09-15T01:54:15.056Z,0.00
2016-09-15T01:55:15.421Z,0.00
2016-09-15T01:56:15.927Z,0.00
2016-09-15T01:57:16.443Z,0.00
2016-09-15T01:58:17.109Z,0.00
2016-09-15T01:59:17.469Z,0.00
2016-09-15T02:00:18.133Z,0.00
2016-09-15T02:01:18.497Z,0.00
2016-09-15T02:02:19.158Z,0.00
2016-09-15T02:03:19.551Z,0.00
2016-09-15T02:04:20.043Z,0.00
2016-09-15T02:05:20.555Z,0.00
2016-09-15T02:06:21.067Z,0.00
2016-09-15T02:07:21.583Z,0.00
2016-09-15T02:08:22.094Z,0.00
2016-09-15T02:09:22.614Z,0.00
2016-09-15T02:10:23.425Z,0.00
2016-09-15T02:11:23.797Z,0.00
2016-09-15T02:12:24.159Z,0.00
2016-09-15T02:13:24.694Z,0.00
2016-09-15T02:14:25.185Z,0.00
2016-09-15T02:15:25.701Z,0.00
2016-09-15T02:16:26.215Z,0.00
2016-09-15T02:17:26.734Z,0.00
2016-09-15T02:18:27.255Z,0.00
2016-09-15T02:19:27.769Z,0.00
2016-09-15T02:20:28.281Z,0.00
2016-09-15T02:21:29.099Z,0.00
2016-09-15T02:22:29.315Z,0.00
2016-09-15T02:23:29.862Z,0.00
2016-09-15T02:24:30.347Z,0.00
2016-09-15T02:25:30.861Z,0.00
2016-09-15T02:26:31.379Z,0.00
2016-09-15T02:27:31.885Z,0.00
2016-09-15T02:28:32.399Z,0.00
2016-09-15T02:29:32.909Z,0.00
2016-09-15T02:30:33.423Z,0.00
2016-09-15T02:31:33.937Z,0.00
2016-09-15T02:32:34.475Z,0.00
2016-09-15T02:33:35.113Z,0.00
2016-09-15T02:34:35.482Z,0.00
2016-09-15T02:35:35.997Z,0.00
2016-09-15T02:36:36.516Z,0.00
2016-09-15T02:37:37.026Z,0.00
2016-09-15T02:38:37.540Z,0.00
2016-09-15T02:39:38.055Z,0.00
2016-09-15T02:40:38.564Z,0.00
2016-09-15T02:41:39.081Z,0.00
2016-09-15T02:42:39.618Z,0.00
2016-09-15T02:43:40.110Z,0.00
2016-09-15T02:44:40.627Z,0.00
2016-09-15T02:45:41.138Z,0.00
2016-09-15T02:46:41.655Z,0.00
2016-09-15T02:47:43.222Z,0.00
2016-09-15T02:48:42.684Z,0.00
2016-09-15T02:49:43.201Z,0.00
2016-09-15T02:50:43.863Z,0.00
2016-09-15T02:51:44.229Z,0.00
2016-09-15T02:52:44.897Z,0.00
2016-09-15T02:53:45.416Z,0.00
2016-09-15T02:54:45.783Z,0.00
2016-09-15T02:55:46.307Z,0.00
2016-09-15T02:56:46.815Z,0.00
2016-09-15T02:57:47.327Z,0.00
2016-09-15T02:58:47.991Z,0.00
2016-09-15T02:59:48.351Z,0.00
2016-09-15T03:00:48.869Z,0.00
2016-09-15T03:01:49.378Z,0.00
2016-09-15T03:02:49.915Z,0.00
2016-09-15T03:03:50.404Z,0.00
2016-09-15T03:04:50.918Z,0.00
2016-09-15T03:05:51.425Z,0.00
2016-09-15T03:06:51.944Z,0.00
2016-09-15T03:07:52.604Z,0.00
2016-09-15T03:08:53.264Z,0.00
2016-09-15T03:09:53.507Z,0.00
2016-09-15T03:10:54.171Z,0.00
2016-09-15T03:11:54.509Z,0.00
2016-09-15T03:12:55.171Z,0.00
2016-09-15T03:13:55.534Z,0.00
2016-09-15T03:14:56.056Z,0.00
2016-09-15T03:15:56.566Z,0.00
2016-09-15T03:16:57.227Z,0.00
2016-09-15T03:17:57.745Z,0.00
2016-09-15T03:18:58.253Z,0.00
2016-09-15T03:19:58.615Z,0.00
2016-09-15T03:20:59.131Z,0.00
2016-09-15T03:21:59.641Z,0.00
2016-09-15T03:23:00.182Z,0.00
2016-09-15T03:24:00.670Z,0.00
2016-09-15T03:25:01.332Z,0.00
2016-09-15T03:26:01.694Z,0.00
2016-09-15T03:27:02.360Z,0.00
2016-09-15T03:28:02.869Z,0.00
2016-09-15T03:29:03.242Z,0.00
2016-09-15T03:30:03.907Z,0.00
2016-09-15T03:31:04.273Z,0.00
2016-09-15T03:32:04.790Z,0.00
2016-09-15T03:33:05.301Z,0.00
2016-09-15T03:34:05.819Z,0.00
2016-09-15T03:35:06.626Z,0.00
2016-09-15T03:36:06.841Z,0.00
2016-09-15T03:37:07.358Z,0.00
2016-09-15T03:38:07.874Z,0.00
2016-09-15T03:39:08.388Z,0.00
2016-09-15T03:40:08.899Z,0.00
2016-09-15T03:41:09.402Z,0.00
2016-09-15T03:42:09.921Z,0.00
2016-09-15T03:43:10.430Z,0.00
2016-09-15T03:44:10.973Z,0.00
2016-09-15T03:45:11.467Z,0.00
2016-09-15T03:46:11.977Z,0.00
2016-09-15T03:47:12.491Z,0.00
2016-09-15T03:48:13.000Z,0.00
2016-09-15T03:49:13.668Z,0.00
2016-09-15T03:50:14.025Z,0.00
2016-09-15T03:51:14.689Z,0.00
2016-09-15T03:52:15.215Z,0.00
2016-09-15T03:53:15.572Z,0.00
2016-09-15T03:54:16.112Z,0.00
2016-09-15T03:55:16.597Z,0.00
2016-09-15T03:56:17.112Z,0.00
2016-09-15T03:57:17.627Z,0.00
2016-09-15T03:58:18.137Z,0.00
2016-09-15T03:59:18.652Z,0.00
2016-09-15T04:00:19.164Z,0.00
2016-09-15T04:01:19.678Z,0.00
2016-09-15T04:02:20.188Z,0.00
2016-09-15T04:03:20.701Z,0.00
2016-09-15T04:04:21.221Z,0.00
2016-09-15T04:05:21.733Z,0.00
2016-09-15T04:06:22.253Z,0.00
2016-09-15T04:07:22.773Z,0.00
2016-09-15T04:08:23.322Z,0.00
2016-09-15T04:09:23.804Z,0.00
2016-09-15T04:10:24.322Z,0.00
2016-09-15T04:11:24.838Z,0.00
2016-09-15T04:12:25.347Z,0.00
2016-09-15T04:13:25.868Z,0.00
2016-09-15T04:14:26.412Z,0.00
2016-09-15T04:15:26.908Z,0.00
2016-09-15T04:16:27.410Z,0.00
2016-09-15T04:17:27.918Z,0.00
2016-09-15T04:18:28.442Z,0.00
2016-09-15T04:19:28.946Z,0.00
2016-09-15T04:20:29.615Z,0.00
2016-09-15T04:21:29.981Z,0.00
2016-09-15T04:22:30.490Z,0.00
2016-09-15T04:23:31.157Z,0.00
2016-09-15T04:24:31.685Z,0.00
2016-09-15T04:25:32.361Z,0.00
2016-09-15T04:26:32.702Z,0.00
2016-09-15T04:27:33.069Z,0.00
2016-09-15T04:28:33.575Z,0.00
2016-09-15T04:29:34.095Z,0.00
2016-09-15T04:30:34.600Z,0.00
2016-09-15T04:31:35.155Z,0.00
2016-09-15T04:32:35.781Z,0.00
2016-09-15T04:33:36.301Z,0.00
2016-09-15T04:34:36.676Z,0.00
2016-09-15T04:35:37.180Z,0.00
2016-09-15T04:36:37.689Z,0.00
2016-09-15T04:37:38.199Z,0.00
2016-09-15T04:38:38.719Z,0.00
2016-09-15T04:39:39.233Z,0.00
2016-09-15T04:40:39.760Z,0.00
2016-09-15T04:41:40.261Z,0.00
2016-09-15T04:42:40.943Z,0.00
2016-09-15T04:43:41.294Z,0.00
2016-09-15T04:44:41.964Z,0.00
2016-09-15T04:45:42.331Z,0.00
2016-09-15T04:46:42.850Z,0.00
2016-09-15T04:47:43.514Z,0.00
2016-09-15T04:48:43.887Z,0.00
2016-09-15T04:49:44.395Z,0.00
2016-09-15T04:50:44.910Z,0.00
2016-09-15T04:51:45.438Z,0.00
2016-09-15T04:52:45.937Z,0.00
2016-09-15T04:53:46.603Z,0.00
2016-09-15T04:54:46.984Z,0.00
2016-09-15T04:55:47.479Z,0.00
2016-09-15T04:56:47.991Z,0.00
2016-09-15T04:57:49.856Z,0.00
2016-09-15T04:58:49.017Z,0.00
2016-09-15T04:59:49.534Z,0.00
2016-09-15T05:00:50.045Z,0.00
2016-09-15T05:01:50.559Z,0.00
2016-09-15T05:02:51.086Z,0.00
2016-09-15T05:03:51.595Z,0.00
2016-09-15T05:04:52.255Z,0.00
2016-09-15T05:05:52.621Z,0.00
2016-09-15T05:06:53.135Z,0.00
2016-09-15T05:07:53.832Z,1.00
2016-09-15T05:08:54.163Z,1.00
2016-09-15T05:09:54.677Z,1.00
2016-09-15T05:10:55.339Z,1.00
2016-09-15T05:11:55.708Z,1.00
2016-09-15T05:12:56.224Z,1.00
2016-09-15T05:13:56.783Z,1.00
2016-09-15T05:14:57.255Z,1.00
2016-09-15T05:15:57.773Z,1.00
2016-09-15T05:16:58.284Z,1.00
2016-09-15T05:17:58.802Z,1.00
2016-09-15T05:18:59.473Z,1.00
2016-09-15T05:19:59.835Z,2.00
2016-09-15T05:21:00.357Z,2.00
2016-09-15T05:22:00.875Z,2.00
2016-09-15T05:23:01.389Z,2.00
2016-09-15T05:24:01.940Z,2.00
2016-09-15T05:25:02.420Z,2.00
2016-09-15T05:26:02.930Z,2.00
2016-09-15T05:27:03.450Z,2.00
2016-09-15T05:28:03.965Z,2.00
2016-09-15T05:29:04.475Z,2.00
2016-09-15T05:30:05.145Z,2.00
2016-09-15T05:31:05.502Z,2.00
2016-09-15T05:32:06.023Z,3.00
2016-09-15T05:33:06.678Z,3.00
2016-09-15T05:34:07.050Z,3.00
2016-09-15T05:35:07.565Z,3.00
2016-09-15T05:36:08.073Z,3.00
2016-09-15T05:37:08.592Z,3.00
2016-09-15T05:38:09.251Z,3.00
2016-09-15T05:39:09.618Z,3.00
2016-09-15T05:40:10.140Z,3.00
2016-09-15T05:41:10.649Z,3.00
2016-09-15T05:42:11.159Z,3.00
2016-09-15T05:43:11.724Z,4.00
2016-09-15T05:44:12.189Z,4.00
2016-09-15T05:45:12.707Z,4.00
2016-09-15T05:46:13.223Z,5.00
2016-09-15T05:47:13.886Z,5.00
2016-09-15T05:48:14.256Z,5.00
2016-09-15T05:49:14.767Z,5.00
2016-09-15T05:50:15.281Z,5.00
2016-09-15T05:51:15.951Z,5.00
2016-09-15T05:52:16.318Z,5.00
2016-09-15T05:53:16.977Z,5.00
2016-09-15T05:54:17.339Z,5.00
2016-09-15T05:55:17.856Z,5.00
2016-09-15T05:56:18.379Z,6.00
2016-09-15T05:57:18.892Z,7.00
2016-09-15T05:58:19.409Z,7.00
2016-09-15T05:59:19.928Z,7.00
2016-09-15T06:00:20.440Z,7.00
2016-09-15T06:01:20.955Z,7.00
2016-09-15T06:02:21.468Z,6.00
2016-09-15T06:03:21.987Z,6.00
2016-09-15T06:04:22.525Z,6.00
2016-09-15T06:05:23.017Z,6.00
2016-09-15T06:06:25.035Z,6.00
2016-09-15T06:07:24.044Z,6.00
2016-09-15T06:08:24.559Z,7.00
2016-09-15T06:09:25.227Z,7.00
2016-09-15T06:10:25.587Z,7.00
2016-09-15T06:11:26.103Z,7.00
2016-09-15T06:12:26.924Z,7.00
2016-09-15T06:13:27.135Z,7.00
2016-09-15T06:14:27.802Z,8.00
2016-09-15T06:15:28.348Z,8.00
2016-09-15T06:16:28.706Z,9.00
2016-09-15T06:17:29.198Z,9.00
2016-09-15T06:18:29.711Z,10.00
2016-09-15T06:19:30.385Z,9.00
2016-09-15T06:20:30.890Z,9.00
2016-09-15T06:21:31.257Z,9.00
2016-09-15T06:22:31.938Z,9.00
2016-09-15T06:23:32.284Z,9.00
2016-09-15T06:24:32.800Z,10.00
2016-09-15T06:25:33.311Z,12.00
2016-09-15T06:26:33.845Z,14.00
2016-09-15T06:27:34.338Z,15.00
2016-09-15T06:28:34.854Z,15.00
2016-09-15T06:29:35.372Z,15.00
2016-09-15T06:30:35.887Z,16.00
2016-09-15T06:31:36.417Z,16.00
2016-09-15T06:32:36.930Z,16.00
2016-09-15T06:33:37.445Z,16.00
2016-09-15T06:34:37.963Z,16.00
2016-09-15T06:35:38.512Z,16.00
2016-09-15T06:36:40.951Z,16.00
2016-09-15T06:37:39.510Z,17.00
2016-09-15T06:38:40.028Z,17.00
2016-09-15T06:39:40.542Z,17.00
2016-09-15T06:40:41.355Z,17.00
2016-09-15T06:41:41.572Z,18.00
2016-09-15T06:42:42.085Z,18.00
2016-09-15T06:43:42.609Z,18.00
2016-09-15T06:44:43.264Z,18.00
2016-09-15T06:45:43.639Z,19.00
2016-09-15T06:46:44.145Z,19.00
2016-09-15T06:47:44.660Z,19.00
2016-09-15T06:48:45.329Z,20.00
2016-09-15T06:49:45.865Z,20.00
2016-09-15T06:50:46.203Z,20.00
2016-09-15T06:51:46.871Z,20.00
2016-09-15T06:52:48.282Z,21.00
2016-09-15T06:53:47.747Z,21.00
2016-09-15T06:54:48.409Z,21.00
2016-09-15T06:55:48.783Z,21.00
2016-09-15T06:56:49.444Z,22.00
2016-09-15T06:57:50.106Z,22.00
2016-09-15T06:58:50.323Z,22.00
2016-09-15T06:59:50.855Z,22.00
2016-09-15T07:00:51.348Z,22.00
2016-09-15T07:01:51.860Z,22.00
2016-09-15T07:02:52.370Z,23.00
2016-09-15T07:03:52.890Z,23.00
2016-09-15T07:04:53.555Z,23.00
2016-09-15T07:05:54.217Z,23.00
2016-09-15T07:06:54.431Z,23.00
2016-09-15T07:07:55.097Z,23.00
2016-09-15T07:08:55.482Z,23.00
2016-09-15T07:09:55.984Z,24.00
2016-09-15T07:10:56.501Z,24.00
2016-09-15T07:11:57.019Z,24.00
2016-09-15T07:12:57.539Z,24.00
2016-09-15T07:13:58.048Z,24.00
2016-09-15T07:14:58.570Z,24.00
2016-09-15T07:15:59.084Z,25.00
2016-09-15T07:16:59.590Z,25.00
2016-09-15T07:18:00.111Z,25.00
2016-09-15T07:19:00.621Z,25.00
2016-09-15T07:20:01.158Z,25.00
2016-09-15T07:21:01.665Z,26.00
2016-09-15T07:22:02.166Z,26.00
2016-09-15T07:23:02.704Z,26.00
2016-09-15T07:24:03.194Z,26.00
2016-09-15T07:25:03.710Z,26.00
2016-09-15T07:26:04.521Z,27.00
2016-09-15T07:27:04.889Z,27.00
2016-09-15T07:28:05.399Z,27.00
2016-09-15T07:29:05.774Z,27.00
2016-09-15T07:30:06.284Z,27.00
2016-09-15T07:31:06.816Z,27.00
2016-09-15T07:32:07.464Z,27.00
2016-09-15T07:33:07.828Z,27.00
2016-09-15T07:34:08.341Z,28.00
2016-09-15T07:35:08.858Z,28.00
2016-09-15T07:36:09.373Z,28.00
2016-09-15T07:37:09.884Z,28.00
2016-09-15T07:38:10.403Z,28.00
2016-09-15T07:39:11.064Z,28.00
2016-09-15T07:40:11.429Z,28.00
2016-09-15T07:41:11.948Z,29.00
2016-09-15T07:42:12.460Z,29.00
2016-09-15T07:43:12.974Z,29.00
2016-09-15T07:44:13.489Z,29.00
2016-09-15T07:45:14.004Z,30.00
2016-09-15T07:46:14.522Z,29.00
2016-09-15T07:47:15.041Z,29.00
2016-09-15T07:48:15.583Z,29.00
2016-09-15T07:49:16.091Z,30.00
2016-09-15T07:50:16.619Z,29.00
2016-09-15T07:51:17.110Z,30.00
2016-09-15T07:52:17.627Z,30.00
2016-09-15T07:53:18.142Z,30.00
2016-09-15T07:54:18.654Z,30.00
2016-09-15T07:55:19.188Z,30.00
2016-09-15T07:56:19.835Z,30.00
2016-09-15T07:57:20.197Z,30.00
2016-09-15T07:58:20.745Z,30.00
2016-09-15T07:59:21.226Z,30.00
2016-09-15T08:00:21.740Z,31.00
2016-09-15T08:01:22.406Z,31.00
2016-09-15T08:02:22.914Z,31.00
2016-09-15T08:03:23.282Z,31.00
2016-09-15T08:04:23.793Z,31.00
2016-09-15T08:05:24.311Z,31.00
2016-09-15T08:06:24.825Z,31.00
2016-09-15T08:07:25.339Z,32.00
2016-09-15T08:08:25.855Z,32.00
2016-09-15T08:09:26.369Z,33.00
2016-09-15T08:10:26.883Z,32.00
2016-09-15T08:11:27.399Z,32.00
2016-09-15T08:12:27.910Z,33.00
2016-09-15T08:13:28.421Z,32.00
2016-09-15T08:14:28.936Z,32.00
2016-09-15T08:15:29.449Z,32.00
2016-09-15T08:16:30.119Z,32.00
2016-09-15T08:17:30.480Z,33.00
2016-09-15T08:18:31.011Z,33.00
2016-09-15T08:19:31.509Z,33.00
2016-09-15T08:20:32.038Z,33.00
2016-09-15T08:21:32.543Z,33.00
2016-09-15T08:22:33.202Z,33.00
2016-09-15T08:23:33.575Z,33.00
2016-09-15T08:24:34.090Z,33.00
2016-09-15T08:25:34.752Z,34.00
2016-09-15T08:26:35.116Z,33.00
2016-09-15T08:27:35.634Z,34.00
2016-09-15T08:28:36.145Z,34.00
2016-09-15T08:29:36.699Z,35.00
2016-09-15T08:30:37.173Z,34.00
2016-09-15T08:31:37.684Z,35.00
2016-09-15T08:32:38.195Z,35.00
2016-09-15T08:33:38.711Z,34.00
2016-09-15T08:34:39.224Z,34.00
2016-09-15T08:35:39.740Z,37.00
2016-09-15T08:36:40.404Z,35.00
2016-09-15T08:37:40.919Z,35.00
2016-09-15T08:38:41.302Z,35.00
2016-09-15T08:39:41.791Z,35.00
2016-09-15T08:40:42.312Z,35.00
2016-09-15T08:41:42.975Z,35.00
2016-09-15T08:42:43.341Z,35.00
2016-09-15T08:43:43.854Z,35.00
2016-09-15T08:44:44.376Z,35.00
2016-09-15T08:45:45.037Z,35.00
2016-09-15T08:46:45.399Z,35.00
2016-09-15T08:47:45.915Z,35.00
2016-09-15T08:48:46.443Z,35.00
2016-09-15T08:49:46.940Z,35.00
2016-09-15T08:50:47.452Z,35.00
2016-09-15T08:51:48.119Z,35.00
2016-09-15T08:52:48.486Z,36.00
2016-09-15T08:53:49.001Z,36.00
2016-09-15T08:54:49.514Z,36.00
2016-09-15T08:55:50.936Z,36.00
2016-09-15T08:56:50.697Z,36.00
2016-09-15T08:57:51.062Z,36.00
2016-09-15T08:58:51.744Z,36.00
2016-09-15T08:59:52.093Z,36.00
2016-09-15T09:00:52.603Z,36.00
2016-09-15T09:01:54.768Z,37.00
2016-09-15T09:02:53.635Z,37.00
2016-09-15T09:03:54.298Z,37.00
2016-09-15T09:04:54.664Z,37.00
2016-09-15T09:05:55.179Z,37.00
2016-09-15T09:06:55.692Z,37.00
2016-09-15T09:07:56.206Z,37.00
2016-09-15T09:08:56.721Z,37.00
2016-09-15T09:09:57.235Z,37.00
2016-09-15T09:10:57.749Z,38.00
2016-09-15T09:11:58.257Z,38.00
2016-09-15T09:12:58.928Z,38.00
2016-09-15T09:13:59.292Z,38.00
2016-09-15T09:14:59.806Z,38.00
2016-09-15T09:16:00.471Z,38.00
2016-09-15T09:17:00.834Z,38.00
2016-09-15T09:18:01.496Z,38.00
2016-09-15T09:19:01.861Z,38.00
2016-09-15T09:20:02.375Z,38.00
2016-09-15T09:21:03.035Z,38.00
2016-09-15T09:22:03.404Z,38.00
2016-09-15T09:23:03.918Z,38.00
2016-09-15T09:24:04.583Z,38.00
2016-09-15T09:25:04.944Z,38.00
2016-09-15T09:26:05.458Z,39.00
2016-09-15T09:27:05.974Z,39.00
2016-09-15T09:28:06.638Z,38.00
2016-09-15T09:29:07.008Z,39.00
2016-09-15T09:30:07.511Z,39.00
2016-09-15T09:31:08.028Z,39.00
2016-09-15T09:32:08.537Z,39.00
2016-09-15T09:33:09.056Z,39.00
2016-09-15T09:34:09.566Z,39.00
2016-09-15T09:35:10.083Z,39.00
2016-09-15T09:36:10.600Z,39.00
2016-09-15T09:37:11.122Z,39.00
2016-09-15T09:38:11.931Z,39.00
2016-09-15T09:39:12.148Z,39.00
2016-09-15T09:40:12.672Z,39.00
2016-09-15T09:41:14.218Z,39.00
2016-09-15T09:42:13.830Z,40.00
2016-09-15T09:43:14.201Z,40.00
2016-09-15T09:44:14.860Z,40.00
2016-09-15T09:45:15.374Z,40.00
2016-09-15T09:46:15.739Z,40.00
2016-09-15T09:47:16.252Z,40.00
2016-09-15T09:48:16.790Z,40.00
2016-09-15T09:49:17.426Z,40.00
2016-09-15T09:50:17.799Z,40.00
2016-09-15T09:51:18.302Z,40.00
2016-09-15T09:52:18.815Z,40.00
2016-09-15T09:53:19.356Z,41.00
2016-09-15T09:54:20.000Z,41.00
2016-09-15T09:55:20.511Z,41.00
2016-09-15T09:56:20.873Z,41.00
2016-09-15T09:57:21.387Z,41.00
2016-09-15T09:58:21.931Z,41.00
2016-09-15T09:59:22.416Z,41.00
2016-09-15T10:00:23.081Z,41.00
2016-09-15T10:01:23.444Z,41.00
2016-09-15T10:02:23.959Z,41.00
2016-09-15T10:03:24.471Z,41.00
2016-09-15T10:04:25.132Z,41.00
2016-09-15T10:05:25.500Z,42.00
2016-09-15T10:06:26.009Z,42.00
2016-09-15T10:07:26.523Z,42.00
2016-09-15T10:08:27.035Z,42.00
2016-09-15T10:09:27.551Z,42.00
2016-09-15T10:10:28.068Z,42.00
2016-09-15T10:11:28.730Z,42.00
2016-09-15T10:12:29.244Z,42.00
2016-09-15T10:13:31.274Z,42.00
2016-09-15T10:14:30.138Z,42.00
2016-09-15T10:15:30.643Z,42.00
2016-09-15T10:16:31.165Z,42.00
2016-09-15T10:17:31.837Z,42.00
2016-09-15T10:18:32.340Z,42.00
2016-09-15T10:19:32.707Z,42.00
2016-09-15T10:20:33.220Z,42.00
2016-09-15T10:21:33.738Z,42.00
2016-09-15T10:22:34.249Z,42.00
2016-09-15T10:23:34.762Z,42.00
2016-09-15T10:24:35.274Z,42.00
2016-09-15T10:25:35.788Z,42.00
2016-09-15T10:26:36.303Z,42.00
2016-09-15T10:27:36.963Z,42.00
2016-09-15T10:28:37.482Z,42.00
2016-09-15T10:29:37.847Z,43.00
2016-09-15T10:30:38.371Z,42.00
2016-09-15T10:31:38.883Z,42.00
2016-09-15T10:32:39.392Z,43.00
2016-09-15T10:33:39.907Z,42.00
2016-09-15T10:34:40.417Z,42.00
2016-09-15T10:35:41.088Z,43.00
2016-09-15T10:36:41.453Z,43.00
2016-09-15T10:37:41.966Z,43.00
2016-09-15T10:38:42.478Z,43.00
2016-09-15T10:39:43.142Z,43.00
2016-09-15T10:40:43.509Z,43.00
2016-09-15T10:41:44.024Z,43.00
2016-09-15T10:42:44.543Z,43.00
2016-09-15T10:43:45.949Z,43.00
2016-09-15T10:44:45.862Z,43.00
2016-09-15T10:45:46.109Z,43.00
2016-09-15T10:46:46.598Z,43.00
2016-09-15T10:47:47.109Z,43.00
2016-09-15T10:48:47.631Z,43.00
2016-09-15T10:49:48.300Z,44.00
2016-09-15T10:50:48.668Z,43.00
2016-09-15T10:51:49.215Z,43.00
2016-09-15T10:52:49.697Z,43.00
2016-09-15T10:53:50.384Z,43.00
2016-09-15T10:54:50.725Z,43.00
2016-09-15T10:55:51.240Z,43.00
2016-09-15T10:56:52.055Z,44.00
2016-09-15T10:57:52.298Z,44.00
2016-09-15T10:58:52.793Z,44.00
2016-09-15T10:59:53.302Z,44.00
2016-09-15T11:00:53.970Z,44.00
2016-09-15T11:01:54.644Z,44.00
2016-09-15T11:02:54.852Z,44.00
2016-09-15T11:03:55.361Z,44.00
2016-09-15T11:04:55.874Z,44.00
2016-09-15T11:05:56.390Z,44.00
2016-09-15T11:06:56.929Z,44.00
2016-09-15T11:07:57.416Z,44.00
2016-09-15T11:08:57.937Z,45.00
2016-09-15T11:09:58.446Z,45.00
2016-09-15T11:10:58.957Z,45.00
2016-09-15T11:11:59.473Z,46.00
2016-09-15T11:12:59.992Z,46.00
2016-09-15T11:14:00.651Z,46.00
2016-09-15T11:15:01.012Z,46.00
2016-09-15T11:16:01.529Z,46.00
2016-09-15T11:17:02.078Z,47.00
2016-09-15T11:18:02.555Z,47.00
2016-09-15T11:19:03.216Z,47.00
2016-09-15T11:20:03.581Z,47.00
2016-09-15T11:21:04.095Z,47.00
2016-09-15T11:22:04.609Z,47.00
2016-09-15T11:23:05.120Z,47.00
2016-09-15T11:24:05.640Z,47.00
2016-09-15T11:25:06.175Z,48.00
2016-09-15T11:26:06.676Z,48.00
2016-09-15T11:27:07.208Z,48.00
2016-09-15T11:28:07.863Z,49.00
2016-09-15T11:29:08.227Z,49.00
2016-09-15T11:30:08.746Z,49.00
2016-09-15T11:31:09.258Z,49.00
2016-09-15T11:32:09.769Z,49.00
2016-09-15T11:33:10.279Z,49.00
2016-09-15T11:34:10.797Z,50.00
2016-09-15T11:35:11.490Z,50.00
2016-09-15T11:36:12.129Z,50.00
2016-09-15T11:37:12.342Z,50.00
2016-09-15T11:38:12.857Z,51.00
2016-09-15T11:39:13.374Z,51.00
2016-09-15T11:40:13.880Z,52.00
2016-09-15T11:41:14.398Z,52.00
2016-09-15T11:42:14.912Z,52.00
2016-09-15T11:43:15.430Z,53.00
2016-09-15T11:44:16.093Z,53.00
2016-09-15T11:45:16.450Z,53.00
2016-09-15T11:46:16.994Z,53.00
2016-09-15T11:47:17.485Z,53.00
2016-09-15T11:48:18.000Z,53.00
2016-09-15T11:49:18.510Z,54.00
2016-09-15T11:50:19.028Z,54.00
2016-09-15T11:51:19.549Z,54.00
2016-09-15T11:52:20.209Z,55.00
2016-09-15T11:53:20.872Z,55.00
2016-09-15T11:54:21.081Z,55.00
2016-09-15T11:55:21.598Z,55.00
2016-09-15T11:56:22.112Z,56.00
2016-09-15T11:57:22.643Z,56.00
2016-09-15T11:58:23.179Z,56.00
2016-09-15T11:59:23.658Z,56.00
2016-09-15T12:00:24.172Z,56.00
2016-09-15T12:01:24.839Z,56.00
2016-09-15T12:02:25.210Z,56.00
2016-09-15T12:03:25.873Z,57.00
2016-09-15T12:04:26.239Z,57.00
2016-09-15T12:05:26.758Z,57.00
2016-09-15T12:06:27.269Z,57.00
2016-09-15T12:07:27.821Z,58.00
2016-09-15T12:08:28.299Z,58.00
2016-09-15T12:09:28.833Z,58.00
2016-09-15T12:10:29.325Z,58.00
2016-09-15T12:11:29.847Z,58.00
2016-09-15T12:12:30.355Z,58.00
2016-09-15T12:13:30.866Z,59.00
2016-09-15T12:14:31.380Z,59.00
2016-09-15T12:15:32.045Z,60.00
2016-09-15T12:16:32.408Z,60.00
2016-09-15T12:17:32.947Z,60.00
2016-09-15T12:18:33.437Z,60.00
2016-09-15T12:19:33.955Z,61.00
2016-09-15T12:20:34.461Z,61.00
2016-09-15T12:21:34.974Z,61.00
2016-09-15T12:22:37.137Z,61.00
2016-09-15T12:23:36.002Z,61.00
2016-09-15T12:24:36.519Z,62.00
2016-09-15T12:25:37.186Z,62.00
2016-09-15T12:26:37.548Z,62.00
2016-09-15T12:27:38.082Z,63.00
2016-09-15T12:28:38.576Z,63.00
2016-09-15T12:29:39.111Z,63.00
2016-09-15T12:30:39.604Z,63.00
2016-09-15T12:31:40.123Z,63.00
2016-09-15T12:32:40.636Z,63.00
2016-09-15T12:33:41.153Z,64.00
2016-09-15T12:34:41.667Z,64.00
2016-09-15T12:35:42.184Z,65.00
2016-09-15T12:36:42.697Z,65.00
2016-09-15T12:37:43.359Z,65.00
2016-09-15T12:38:43.723Z,65.00
2016-09-15T12:39:44.248Z,65.00
2016-09-15T12:40:44.761Z,66.00
2016-09-15T12:41:45.284Z,66.00
2016-09-15T12:42:45.939Z,66.00
2016-09-15T12:43:46.307Z,67.00
2016-09-15T12:44:46.822Z,67.00
2016-09-15T12:45:47.331Z,67.00
2016-09-15T12:46:47.856Z,67.00
2016-09-15T12:47:48.362Z,67.00
2016-09-15T12:48:48.877Z,68.00
2016-09-15T12:49:49.542Z,68.00
2016-09-15T12:50:49.908Z,68.00
2016-09-15T12:51:50.424Z,68.00
2016-09-15T12:52:50.946Z,69.00
2016-09-15T12:53:51.459Z,69.00
2016-09-15T12:54:52.121Z,69.00
2016-09-15T12:55:52.487Z,69.00
2016-09-15T12:56:53.166Z,70.00
2016-09-15T12:57:53.511Z,69.00
2016-09-15T12:58:54.029Z,70.00
2016-09-15T12:59:54.566Z,70.00
2016-09-15T13:00:55.063Z,70.00
2016-09-15T13:01:55.576Z,70.00
2016-09-15T13:02:56.092Z,70.00
2016-09-15T13:03:56.606Z,70.00
2016-09-15T13:04:57.118Z,70.00
2016-09-15T13:05:57.627Z,70.00
2016-09-15T13:06:58.147Z,71.00
2016-09-15T13:07:58.660Z,71.00
2016-09-15T13:08:59.321Z,71.00
2016-09-15T13:09:59.692Z,71.00
2016-09-15T13:11:00.209Z,72.00